Library, Pennsylvania
Current Conditions -  °F | °C
As of 5:53 AM on Sunday 23 Nov 2014 (Local Time) from KAGC Reporting Station
Overcast Overcast  
Wind Chill: 43°   Ceiling: 4900
Heat Index: 47°   Visibility: 10mi
Dew Point: 24°   Wind: 8mph
Humidity: 41%   Direction: 160°SSE
Pressure: 30.09"   Gusts: NA
Location:  40.29°N, 80.01°W
Report Text: KAGC 231053Z AUTO 16007KT 10SM OVC049 08/M04 A3009 RMK AO2 SLP199 T00831044 TSNO
Loading
Personal Weather Stations






























Interactive Weather Map New forecast layout! Learn more

10-Day Weather Forecast

Advertisements
Track Severe Weather on mobile